sensor_id;sensor_type;location;lat;lon;timestamp;pressure;altitude;pressure_sealevel;temperature;humidity
55044;BME280;54902;50.420;18.854;2023-10-13T00:00:22;101389.76;;;16.11;73.63
55044;BME280;54902;50.420;18.854;2023-10-13T00:01:06;101396.00;;;16.13;73.60
55044;BME280;54902;50.420;18.854;2023-10-13T00:01:42;101395.12;;;16.13;73.61
55044;BME280;54902;50.420;18.854;2023-10-13T00:02:12;101398.76;;;16.13;73.61
55044;BME280;54902;50.420;18.854;2023-10-13T00:02:44;101393.24;;;16.13;73.61
55044;BME280;54902;50.420;18.854;2023-10-13T00:03:15;101393.24;;;16.13;73.59
55044;BME280;54902;50.420;18.854;2023-10-13T00:03:46;101400.47;;;16.14;73.61
55044;BME280;54902;50.420;18.854;2023-10-13T00:04:17;101385.25;;;16.10;73.60
55044;BME280;54902;50.420;18.854;2023-10-13T00:04:54;101393.24;;;16.13;73.61
55044;BME280;54902;50.420;18.854;2023-10-13T00:05:28;101387.73;;;16.13;73.60
55044;BME280;54902;50.420;18.854;2023-10-13T00:06:01;101384.98;;;16.13;73.59
55044;BME280;54902;50.420;18.854;2023-10-13T00:06:34;101380.46;;;16.12;73.57
55044;BME280;54902;50.420;18.854;2023-10-13T00:07:08;101384.08;;;16.13;73.57
55044;BME280;54902;50.420;18.854;2023-10-13T00:07:39;101383.07;;;16.14;73.56
55044;BME280;54902;50.420;18.854;2023-10-13T00:08:11;101385.98;;;16.12;73.56
55044;BME280;54902;50.420;18.854;2023-10-13T00:08:44;101380.46;;;16.12;73.57
55044;BME280;54902;50.420;18.854;2023-10-13T00:09:16;101374.96;;;16.12;73.58
55044;BME280;54902;50.420;18.854;2023-10-13T00:09:47;101380.46;;;16.12;73.62
55044;BME280;54902;50.420;18.854;2023-10-13T00:10:18;101372.20;;;16.12;73.64
55044;BME280;54902;50.420;18.854;2023-10-13T00:10:49;101375.96;;;16.11;73.66
55044;BME280;54902;50.420;18.854;2023-10-13T00:11:20;101380.46;;;16.12;73.65
55044;BME280;54902;50.420;18.854;2023-10-13T00:11:52;101377.87;;;16.11;73.66
55044;BME280;54902;50.420;18.854;2023-10-13T00:12:24;101373.20;;;16.11;73.68
55044;BME280;54902;50.420;18.854;2023-10-13T00:12:56;101379.74;;;16.10;73.65
55044;BME280;54902;50.420;18.854;2023-10-13T00:13:38;101374.23;;;16.10;73.68
55044;BME280;54902;50.420;18.854;2023-10-13T00:14:20;101380.78;;;16.09;73.69
55044;BME280;54902;50.420;18.854;2023-10-13T00:14:52;101375.27;;;16.09;73.70
55044;BME280;54902;50.420;18.854;2023-10-13T00:15:24;101374.37;;;16.09;73.69
55044;BME280;54902;50.420;18.854;2023-10-13T00:15:58;101380.90;;;16.08;73.69
55044;BME280;54902;50.420;18.854;2023-10-13T00:16:29;101373.52;;;16.08;73.73
55044;BME280;54902;50.420;18.854;2023-10-13T00:17:06;101374.53;;;16.07;73.75
55044;BME280;54902;50.420;18.854;2023-10-13T00:17:50;101371.07;;;16.05;73.73
55044;BME280;54902;50.420;18.854;2023-10-13T00:18:21;101373.81;;;16.05;73.73
55044;BME280;54902;50.420;18.854;2023-10-13T00:18:53;101367.42;;;16.05;73.72
55044;BME280;54902;50.420;18.854;2023-10-13T00:19:31;101369.32;;;16.04;73.73
55044;BME280;54902;50.420;18.854;2023-10-13T00:20:14;101375.84;;;16.03;73.72
55044;BME280;54902;50.420;18.854;2023-10-13T00:20:57;101372.23;;;16.03;73.73
55044;BME280;54902;50.420;18.854;2023-10-13T00:21:28;101372.38;;;16.01;73.72
55044;BME280;54902;50.420;18.854;2023-10-13T00:22:01;101371.50;;;16.01;73.73
55044;BME280;54902;50.420;18.854;2023-10-13T00:22:40;101367.88;;;16.00;73.73
55044;BME280;54902;50.420;18.854;2023-10-13T00:23:12;101376.15;;;16.00;73.70
55044;BME280;54902;50.420;18.854;2023-10-13T00:23:44;101371.80;;;15.98;73.74
55044;BME280;54902;50.420;18.854;2023-10-13T00:24:24;101376.41;;;15.97;73.74
55044;BME280;54902;50.420;18.854;2023-10-13T00:25:05;101377.47;;;15.96;73.73
55044;BME280;54902;50.420;18.854;2023-10-13T00:25:42;101381.08;;;15.97;73.74
55044;BME280;54902;50.420;18.854;2023-10-13T00:26:25;101372.11;;;15.95;73.72
55044;BME280;54902;50.420;18.854;2023-10-13T00:27:00;101365.70;;;15.94;73.73
55044;BME280;54902;50.420;18.854;2023-10-13T00:27:35;101371.22;;;15.94;73.73
55044;BME280;54902;50.420;18.854;2023-10-13T00:28:11;101372.23;;;15.93;73.72
55044;BME280;54902;50.420;18.854;2023-10-13T00:29:00;101366.71;;;15.93;73.72
55044;BME280;54902;50.420;18.854;2023-10-13T00:29:42;101376.03;;;15.92;73.72
55044;BME280;54902;50.420;18.854;2023-10-13T00:30:14;101377.89;;;15.92;73.71
55044;BME280;54902;50.420;18.854;2023-10-13T00:30:54;101382.55;;;15.91;73.71
55044;BME280;54902;50.420;18.854;2023-10-13T00:31:38;101376.17;;;15.91;73.70
55044;BME280;54902;50.420;18.854;2023-10-13T00:32:13;101378.05;;;15.90;73.69
55044;BME280;54902;50.420;18.854;2023-10-13T00:32:52;101366.16;;;15.90;73.68
55044;BME280;54902;50.420;18.854;2023-10-13T00:33:27;101370.78;;;15.89;73.64
55044;BME280;54902;50.420;18.854;2023-10-13T00:33:58;101365.42;;;15.88;73.63
55044;BME280;54902;50.420;18.854;2023-10-13T00:34:40;101368.18;;;15.88;73.65
55044;BME280;54902;50.420;18.854;2023-10-13T00:35:11;101368.34;;;15.86;73.67
55044;BME280;54902;50.420;18.854;2023-10-13T00:35:51;101375.59;;;15.87;73.68
55044;BME280;54902;50.420;18.854;2023-10-13T00:36:27;101362.82;;;15.86;73.74
55044;BME280;54902;50.420;18.854;2023-10-13T00:36:58;101365.58;;;15.86;73.76
55044;BME280;54902;50.420;18.854;2023-10-13T00:37:41;101363.83;;;15.85;73.77
55044;BME280;54902;50.420;18.854;2023-10-13T00:38:15;101362.13;;;15.84;73.81
55044;BME280;54902;50.420;18.854;2023-10-13T00:38:54;101370.38;;;15.84;73.80
55044;BME280;54902;50.420;18.854;2023-10-13T00:39:26;101363.98;;;15.84;73.76
55044;BME280;54902;50.420;18.854;2023-10-13T00:39:59;101361.38;;;15.82;73.77
55044;BME280;54902;50.420;18.854;2023-10-13T00:40:36;101365.14;;;15.81;73.74
55044;BME280;54902;50.420;18.854;2023-10-13T00:41:15;101365.14;;;15.81;73.76
55044;BME280;54902;50.420;18.854;2023-10-13T00:41:48;101366.19;;;15.80;73.73
55044;BME280;54902;50.420;18.854;2023-10-13T00:42:29;101367.20;;;15.79;73.74
55044;BME280;54902;50.420;18.854;2023-10-13T00:43:13;101367.20;;;15.79;73.72
55044;BME280;54902;50.420;18.854;2023-10-13T00:43:55;101362.69;;;15.78;73.78
55044;BME280;54902;50.420;18.854;2023-10-13T00:44:35;101365.45;;;15.78;73.81
55044;BME280;54902;50.420;18.854;2023-10-13T00:45:14;101363.70;;;15.77;73.81
55044;BME280;54902;50.420;18.854;2023-10-13T00:45:53;101357.33;;;15.77;73.83
55044;BME280;54902;50.420;18.854;2023-10-13T00:46:38;101359.23;;;15.76;73.86
55044;BME280;54902;50.420;18.854;2023-10-13T00:47:10;101356.48;;;15.76;73.86
55044;BME280;54902;50.420;18.854;2023-10-13T00:47:52;101357.48;;;15.75;73.86
55044;BME280;54902;50.420;18.854;2023-10-13T00:48:28;101358.49;;;15.74;73.85
55044;BME280;54902;50.420;18.854;2023-10-13T00:49:05;101356.75;;;15.73;73.87
55044;BME280;54902;50.420;18.854;2023-10-13T00:49:37;101352.98;;;15.74;73.87
55044;BME280;54902;50.420;18.854;2023-10-13T00:50:11;101355.90;;;15.73;73.89
55044;BME280;54902;50.420;18.854;2023-10-13T00:50:47;101353.99;;;15.73;73.90
55044;BME280;54902;50.420;18.854;2023-10-13T00:51:18;101339.38;;;15.64;73.92
55044;BME280;54902;50.420;18.854;2023-10-13T00:52:01;101346.73;;;15.72;73.90
55044;BME280;54902;50.420;18.854;2023-10-13T00:52:35;101347.78;;;15.72;73.90
55044;BME280;54902;50.420;18.854;2023-10-13T00:53:08;101348.78;;;15.71;73.90
55044;BME280;54902;50.420;18.854;2023-10-13T00:53:40;101339.51;;;15.72;73.88
55044;BME280;54902;50.420;18.854;2023-10-13T00:54:11;101346.89;;;15.71;73.90
55044;BME280;54902;50.420;18.854;2023-10-13T00:54:44;101347.92;;;15.70;73.92
55044;BME280;54902;50.420;18.854;2023-10-13T00:55:19;101348.05;;;15.69;73.95
55044;BME280;54902;50.420;18.854;2023-10-13T00:55:53;101347.04;;;15.70;73.93
55044;BME280;54902;50.420;18.854;2023-10-13T00:56:26;101349.80;;;15.70;73.93
55044;BME280;54902;50.420;18.854;2023-10-13T00:56:59;101353.55;;;15.69;73.93
55044;BME280;54902;50.420;18.854;2023-10-13T00:57:41;101342.54;;;15.69;73.89
55044;BME280;54902;50.420;18.854;2023-10-13T00:58:13;101346.33;;;15.68;73.94
55044;BME280;54902;50.420;18.854;2023-10-13T00:58:45;101349.09;;;15.68;73.93
55044;BME280;54902;50.420;18.854;2023-10-13T00:59:23;101352.70;;;15.68;73.93
55044;BME280;54902;50.420;18.854;2023-10-13T00:59:56;101351.84;;;15.68;74.05
55044;BME280;54902;50.420;18.854;2023-10-13T01:00:29;101355.60;;;15.67;73.94
55044;BME280;54902;50.420;18.854;2023-10-13T01:01:03;101352.85;;;15.67;73.93
55044;BME280;54902;50.420;18.854;2023-10-13T01:01:46;101356.63;;;15.66;73.92
55044;BME280;54902;50.420;18.854;2023-10-13T01:02:25;101353.87;;;15.66;73.95
55044;BME280;54902;50.420;18.854;2023-10-13T01:03:07;101353.87;;;15.66;73.95
55044;BME280;54902;50.420;18.854;2023-10-13T01:03:38;101359.37;;;15.66;73.98
55044;BME280;54902;50.420;18.854;2023-10-13T01:04:10;101356.63;;;15.66;73.98
55044;BME280;54902;50.420;18.854;2023-10-13T01:04:45;101346.60;;;15.65;73.99
55044;BME280;54902;50.420;18.854;2023-10-13T01:05:17;101352.11;;;15.65;74.02
55044;BME280;54902;50.420;18.854;2023-10-13T01:05:50;101357.63;;;15.65;74.03
55044;BME280;54902;50.420;18.854;2023-10-13T01:06:28;101349.36;;;15.65;74.04
55044;BME280;54902;50.420;18.854;2023-10-13T01:06:59;101348.65;;;15.63;74.05
55044;BME280;54902;50.420;18.854;2023-10-13T01:07:30;101355.02;;;15.63;74.05
55044;BME280;54902;50.420;18.854;2023-10-13T01:08:01;101357.77;;;15.63;74.04
55044;BME280;54902;50.420;18.854;2023-10-13T01:08:33;101359.67;;;15.63;74.04
55044;BME280;54902;50.420;18.854;2023-10-13T01:09:10;101357.93;;;15.62;74.06
55044;BME280;54902;50.420;18.854;2023-10-13T01:09:47;101357.93;;;15.62;74.05
55044;BME280;54902;50.420;18.854;2023-10-13T01:10:18;101363.43;;;15.62;74.05
55044;BME280;54902;50.420;18.854;2023-10-13T01:10:50;101352.41;;;15.62;74.08
55044;BME280;54902;50.420;18.854;2023-10-13T01:11:21;101363.43;;;15.62;74.07
55044;BME280;54902;50.420;18.854;2023-10-13T01:11:55;101363.43;;;15.62;74.06
55044;BME280;54902;50.420;18.854;2023-10-13T01:12:26;101361.69;;;15.61;74.07
55044;BME280;54902;50.420;18.854;2023-10-13T01:12:57;101357.07;;;15.61;74.08
55044;BME280;54902;50.420;18.854;2023-10-13T01:13:33;101358.93;;;15.61;74.08
55044;BME280;54902;50.420;18.854;2023-10-13T01:14:07;101364.45;;;15.61;74.06
55044;BME280;54902;50.420;18.854;2023-10-13T01:14:38;101360.67;;;15.62;74.09
55044;BME280;54902;50.420;18.854;2023-10-13T01:15:10;101364.45;;;15.61;74.10
55044;BME280;54902;50.420;18.854;2023-10-13T01:15:46;101362.73;;;15.60;74.11
55044;BME280;54902;50.420;18.854;2023-10-13T01:16:19;101356.18;;;15.61;74.11
55044;BME280;54902;50.420;18.854;2023-10-13T01:16:57;101359.98;;;15.60;74.06
55044;BME280;54902;50.420;18.854;2023-10-13T01:17:31;101353.57;;;15.59;74.02
55044;BME280;54902;50.420;18.854;2023-10-13T01:18:11;101354.45;;;15.60;74.02
55044;BME280;54902;50.420;18.854;2023-10-13T01:18:47;101354.45;;;15.60;74.05
55044;BME280;54902;50.420;18.854;2023-10-13T01:19:19;101354.58;;;15.58;74.05
55044;BME280;54902;50.420;18.854;2023-10-13T01:19:58;101358.23;;;15.59;74.00
55044;BME280;54902;50.420;18.854;2023-10-13T01:20:29;101358.23;;;15.59;74.03
55044;BME280;54902;50.420;18.854;2023-10-13T01:21:04;101350.97;;;15.58;74.01
55044;BME280;54902;50.420;18.854;2023-10-13T01:21:35;101352.72;;;15.59;74.01
55044;BME280;54902;50.420;18.854;2023-10-13T01:22:06;101354.58;;;15.58;74.01
55044;BME280;54902;50.420;18.854;2023-10-13T01:22:37;101350.97;;;15.58;73.99
55044;BME280;54902;50.420;18.854;2023-10-13T01:23:11;101350.97;;;15.58;73.98
55044;BME280;54902;50.420;18.854;2023-10-13T01:23:56;101347.50;;;15.56;74.00
55044;BME280;54902;50.420;18.854;2023-10-13T01:24:27;101345.62;;;15.56;74.03
55044;BME280;54902;50.420;18.854;2023-10-13T01:25:05;101353.02;;;15.56;74.03
55044;BME280;54902;50.420;18.854;2023-10-13T01:25:43;101352.13;;;15.55;74.06
55044;BME280;54902;50.420;18.854;2023-10-13T01:26:14;101355.90;;;15.54;74.07
55044;BME280;54902;50.420;18.854;2023-10-13T01:26:54;101345.77;;;15.55;74.06
55044;BME280;54902;50.420;18.854;2023-10-13T01:27:25;101343.86;;;15.55;74.10
55044;BME280;54902;50.420;18.854;2023-10-13T01:27:56;101352.13;;;15.55;74.07
55044;BME280;54902;50.420;18.854;2023-10-13T01:28:28;101350.38;;;15.54;74.08
55044;BME280;54902;50.420;18.854;2023-10-13T01:28:58;101345.91;;;15.53;74.08
55044;BME280;54902;50.420;18.854;2023-10-13T01:29:29;101341.26;;;15.54;74.08
55044;BME280;54902;50.420;18.854;2023-10-13T01:30:00;101332.15;;;15.53;74.09
55044;BME280;54902;50.420;18.854;2023-10-13T01:30:42;101342.27;;;15.53;74.05
55044;BME280;54902;50.420;18.854;2023-10-13T01:31:20;101346.06;;;15.52;74.05
55044;BME280;54902;50.420;18.854;2023-10-13T01:32:00;101340.55;;;15.52;74.07
55044;BME280;54902;50.420;18.854;2023-10-13T01:32:31;101337.80;;;15.52;74.05
55044;BME280;54902;50.420;18.854;2023-10-13T01:33:02;101340.55;;;15.52;74.05
55044;BME280;54902;50.420;18.854;2023-10-13T01:33:33;101337.91;;;15.50;74.08
55044;BME280;54902;50.420;18.854;2023-10-13T01:34:05;101337.07;;;15.50;74.07
55044;BME280;54902;50.420;18.854;2023-10-13T01:34:37;101332.41;;;15.50;74.10
55044;BME280;54902;50.420;18.854;2023-10-13T01:35:08;101338.80;;;15.51;74.09
55044;BME280;54902;50.420;18.854;2023-10-13T01:35:40;101336.20;;;15.49;74.10
55044;BME280;54902;50.420;18.854;2023-10-13T01:36:17;101341.71;;;15.49;74.14
55044;BME280;54902;50.420;18.854;2023-10-13T01:36:49;101342.71;;;15.48;74.13
55044;BME280;54902;50.420;18.854;2023-10-13T01:37:24;101338.97;;;15.49;74.12
55044;BME280;54902;50.420;18.854;2023-10-13T01:37:55;101339.08;;;15.48;74.11
55044;BME280;54902;50.420;18.854;2023-10-13T01:38:26;101346.33;;;15.49;74.13
55044;BME280;54902;50.420;18.854;2023-10-13T01:38:58;101345.47;;;15.48;74.12
55044;BME280;54902;50.420;18.854;2023-10-13T01:39:31;101340.12;;;15.47;74.14
55044;BME280;54902;50.420;18.854;2023-10-13T01:40:03;101347.34;;;15.48;74.14
55044;BME280;54902;50.420;18.854;2023-10-13T01:40:35;101344.73;;;15.46;74.14
55044;BME280;54902;50.420;18.854;2023-10-13T01:41:06;101338.38;;;15.46;74.16
55044;BME280;54902;50.420;18.854;2023-10-13T01:41:39;101346.63;;;15.46;74.17
55044;BME280;54902;50.420;18.854;2023-10-13T01:42:10;101346.63;;;15.46;74.14
55044;BME280;54902;50.420;18.854;2023-10-13T01:42:49;101340.27;;;15.45;74.14
55044;BME280;54902;50.420;18.854;2023-10-13T01:43:25;101341.13;;;15.46;74.20
55044;BME280;54902;50.420;18.854;2023-10-13T01:43:56;101343.88;;;15.46;74.19
55044;BME280;54902;50.420;18.854;2023-10-13T01:44:27;101335.92;;;15.43;74.24
55044;BME280;54902;50.420;18.854;2023-10-13T01:45:01;101333.16;;;15.43;74.20
55044;BME280;54902;50.420;18.854;2023-10-13T01:45:36;101337.77;;;15.42;74.20
55044;BME280;54902;50.420;18.854;2023-10-13T01:46:14;101342.28;;;15.43;74.20
55044;BME280;54902;50.420;18.854;2023-10-13T01:46:49;101337.93;;;15.41;74.18
55044;BME280;54902;50.420;18.854;2023-10-13T01:47:21;101337.93;;;15.41;74.21
55044;BME280;54902;50.420;18.854;2023-10-13T01:47:54;101337.93;;;15.41;74.25
55044;BME280;54902;50.420;18.854;2023-10-13T01:48:25;101333.43;;;15.40;74.22
55044;BME280;54902;50.420;18.854;2023-10-13T01:48:56;101340.84;;;15.39;74.20
55044;BME280;54902;50.420;18.854;2023-10-13T01:49:27;101343.59;;;15.39;74.23
55044;BME280;54902;50.420;18.854;2023-10-13T01:49:58;101342.88;;;15.37;74.24
55044;BME280;54902;50.420;18.854;2023-10-13T01:50:42;101336.48;;;15.37;74.26
55044;BME280;54902;50.420;18.854;2023-10-13T01:51:18;101339.23;;;15.37;74.26
55044;BME280;54902;50.420;18.854;2023-10-13T01:51:53;101341.13;;;15.36;74.28
55044;BME280;54902;50.420;18.854;2023-10-13T01:52:24;101333.88;;;15.35;74.26
55044;BME280;54902;50.420;18.854;2023-10-13T01:52:59;101336.79;;;15.34;74.31
55044;BME280;54902;50.420;18.854;2023-10-13T01:53:42;101343.15;;;15.34;74.31
55044;BME280;54902;50.420;18.854;2023-10-13T01:54:14;101342.29;;;15.34;74.31
55044;BME280;54902;50.420;18.854;2023-10-13T01:54:47;101335.03;;;15.33;74.32
55044;BME280;54902;50.420;18.854;2023-10-13T01:55:21;101336.94;;;15.32;74.33
55044;BME280;54902;50.420;18.854;2023-10-13T01:55:52;101346.05;;;15.33;74.36
55044;BME280;54902;50.420;18.854;2023-10-13T01:56:27;101338.80;;;15.32;74.39
55044;BME280;54902;50.420;18.854;2023-10-13T01:57:02;101333.29;;;15.32;74.39
55044;BME280;54902;50.420;18.854;2023-10-13T01:57:34;101340.84;;;15.30;74.38
55044;BME280;54902;50.420;18.854;2023-10-13T01:58:06;101340.84;;;15.30;74.38
55044;BME280;54902;50.420;18.854;2023-10-13T01:58:45;101349.96;;;15.30;74.38
55044;BME280;54902;50.420;18.854;2023-10-13T01:59:18;101339.10;;;15.29;74.37
55044;BME280;54902;50.420;18.854;2023-10-13T01:59:49;101336.34;;;15.29;74.38
55044;BME280;54902;50.420;18.854;2023-10-13T02:00:21;101341.85;;;15.29;74.38
55044;BME280;54902;50.420;18.854;2023-10-13T02:00:52;101337.34;;;15.28;74.38
55044;BME280;54902;50.420;18.854;2023-10-13T02:01:22;101339.24;;;15.27;74.39
55044;BME280;54902;50.420;18.854;2023-10-13T02:02:03;101332.88;;;15.27;74.39
55044;BME280;54902;50.420;18.854;2023-10-13T02:02:36;101335.63;;;15.27;74.39
55044;BME280;54902;50.420;18.854;2023-10-13T02:03:15;101327.79;;;15.22;74.40
55044;BME280;54902;50.420;18.854;2023-10-13T02:03:47;101333.00;;;15.25;74.39
55044;BME280;54902;50.420;18.854;2023-10-13T02:04:19;101339.39;;;15.26;74.41
55044;BME280;54902;50.420;18.854;2023-10-13T02:04:51;101334.03;;;15.24;74.39
55044;BME280;54902;50.420;18.854;2023-10-13T02:05:30;101342.29;;;15.24;74.40
55044;BME280;54902;50.420;18.854;2023-10-13T02:06:07;101341.41;;;15.24;74.35
55044;BME280;54902;50.420;18.854;2023-10-13T02:06:45;101336.94;;;15.23;74.36
55044;BME280;54902;50.420;18.854;2023-10-13T02:07:16;101344.31;;;15.22;74.35
55044;BME280;54902;50.420;18.854;2023-10-13T02:07:47;101341.55;;;15.22;74.35
55044;BME280;54902;50.420;18.854;2023-10-13T02:08:20;101343.45;;;15.22;74.35
55044;BME280;54902;50.420;18.854;2023-10-13T02:08:55;101343.45;;;15.22;74.36
55044;BME280;54902;50.420;18.854;2023-10-13T02:09:33;101340.84;;;15.20;74.38
55044;BME280;54902;50.420;18.854;2023-10-13T02:10:08;101345.47;;;15.20;74.39
55044;BME280;54902;50.420;18.854;2023-10-13T02:10:44;101352.72;;;15.21;74.40
55044;BME280;54902;50.420;18.854;2023-10-13T02:11:15;101348.21;;;15.20;74.41
55044;BME280;54902;50.420;18.854;2023-10-13T02:11:52;101350.97;;;15.20;74.40
55044;BME280;54902;50.420;18.854;2023-10-13T02:12:27;101343.68;;;15.19;74.41
55044;BME280;54902;50.420;18.854;2023-10-13T02:13:14;101352.83;;;15.19;74.39
55044;BME280;54902;50.420;18.854;2023-10-13T02:13:48;101346.43;;;15.19;74.42
55044;BME280;54902;50.420;18.854;2023-10-13T02:14:24;101351.09;;;15.18;74.40
55044;BME280;54902;50.420;18.854;2023-10-13T02:14:56;101348.48;;;15.17;74.38
55044;BME280;54902;50.420;18.854;2023-10-13T02:15:31;101345.73;;;15.17;74.39
55044;BME280;54902;50.420;18.854;2023-10-13T02:16:07;101347.62;;;15.16;74.39
55044;BME280;54902;50.420;18.854;2023-10-13T02:16:38;101349.48;;;15.16;74.39
55044;BME280;54902;50.420;18.854;2023-10-13T02:17:09;101349.48;;;15.16;74.37
55044;BME280;54902;50.420;18.854;2023-10-13T02:17:44;101353.25;;;15.15;74.39
55044;BME280;54902;50.420;18.854;2023-10-13T02:18:16;101352.38;;;15.14;74.40
55044;BME280;54902;50.420;18.854;2023-10-13T02:18:57;101348.78;;;15.14;74.42
55044;BME280;54902;50.420;18.854;2023-10-13T02:19:41;101349.78;;;15.13;74.43
55044;BME280;54902;50.420;18.854;2023-10-13T02:20:15;101347.03;;;15.13;74.45
55044;BME280;54902;50.420;18.854;2023-10-13T02:20:47;101351.52;;;15.14;74.43
55044;BME280;54902;50.420;18.854;2023-10-13T02:21:27;101344.28;;;15.13;74.44
55044;BME280;54902;50.420;18.854;2023-10-13T02:22:02;101345.27;;;15.12;74.47
55044;BME280;54902;50.420;18.854;2023-10-13T02:22:35;101345.27;;;15.12;74.53
55044;BME280;54902;50.420;18.854;2023-10-13T02:23:09;101351.79;;;15.11;74.47
55044;BME280;54902;50.420;18.854;2023-10-13T02:23:43;101346.27;;;15.11;74.45
55044;BME280;54902;50.420;18.854;2023-10-13T02:24:16;101347.33;;;15.10;74.46
55044;BME280;54902;50.420;18.854;2023-10-13T02:24:56;101348.33;;;15.09;74.45
55044;BME280;54902;50.420;18.854;2023-10-13T02:25:36;101353.83;;;15.09;74.44
55044;BME280;54902;50.420;18.854;2023-10-13T02:26:14;101350.19;;;15.09;74.42
55044;BME280;54902;50.420;18.854;2023-10-13T02:26:51;101349.33;;;15.08;74.44
55044;BME280;54902;50.420;18.854;2023-10-13T02:27:21;101348.33;;;15.09;74.42
55044;BME280;54902;50.420;18.854;2023-10-13T02:27:54;101355.84;;;15.07;74.44
55044;BME280;54902;50.420;18.854;2023-10-13T02:28:29;101350.34;;;15.07;74.45
55044;BME280;54902;50.420;18.854;2023-10-13T02:29:05;101347.59;;;15.07;74.45
55044;BME280;54902;50.420;18.854;2023-10-13T02:29:42;101347.59;;;15.07;74.47
55044;BME280;54902;50.420;18.854;2023-10-13T02:30:19;101351.23;;;15.08;74.47
55044;BME280;54902;50.420;18.854;2023-10-13T02:30:56;101358.59;;;15.07;74.47
55044;BME280;54902;50.420;18.854;2023-10-13T02:31:28;101357.73;;;15.07;74.46
55044;BME280;54902;50.420;18.854;2023-10-13T02:31:59;101357.73;;;15.07;74.45
55044;BME280;54902;50.420;18.854;2023-10-13T02:32:35;101348.63;;;15.06;74.45
55044;BME280;54902;50.420;18.854;2023-10-13T02:33:12;101356.88;;;15.06;74.51
55044;BME280;54902;50.420;18.854;2023-10-13T02:33:44;101349.48;;;15.07;74.52
55044;BME280;54902;50.420;18.854;2023-10-13T02:34:15;101360.49;;;15.07;74.54
55044;BME280;54902;50.420;18.854;2023-10-13T02:34:49;101364.10;;;15.07;74.54
55044;BME280;54902;50.420;18.854;2023-10-13T02:35:20;101361.34;;;15.07;74.57
55044;BME280;54902;50.420;18.854;2023-10-13T02:36:05;101347.59;;;15.07;74.57
55044;BME280;54902;50.420;18.854;2023-10-13T02:36:36;101361.34;;;15.07;74.65
55044;BME280;54902;50.420;18.854;2023-10-13T02:37:08;101355.84;;;15.07;74.73
55044;BME280;54902;50.420;18.854;2023-10-13T02:37:41;101348.63;;;15.06;74.79
55044;BME280;54902;50.420;18.854;2023-10-13T02:38:23;101361.34;;;15.07;74.85
55044;BME280;54902;50.420;18.854;2023-10-13T02:39:08;101350.34;;;15.07;74.82
55044;BME280;54902;50.420;18.854;2023-10-13T02:39:40;101362.23;;;15.08;74.81
55044;BME280;54902;50.420;18.854;2023-10-13T02:40:14;101356.73;;;15.08;74.77
55044;BME280;54902;50.420;18.854;2023-10-13T02:40:45;101355.84;;;15.07;74.73
55044;BME280;54902;50.420;18.854;2023-10-13T02:41:17;101358.59;;;15.07;74.71
55044;BME280;54902;50.420;18.854;2023-10-13T02:41:56;101350.34;;;15.07;74.69
55044;BME280;54902;50.420;18.854;2023-10-13T02:42:28;101350.34;;;15.07;74.70
55044;BME280;54902;50.420;18.854;2023-10-13T02:42:59;101347.45;;;15.09;74.74
55044;BME280;54902;50.420;18.854;2023-10-13T02:43:35;101350.34;;;15.07;74.78
55044;BME280;54902;50.420;18.854;2023-10-13T02:44:07;101343.83;;;15.08;74.81
55044;BME280;54902;50.420;18.854;2023-10-13T02:44:52;101346.59;;;15.08;74.75
55044;BME280;54902;50.420;18.854;2023-10-13T02:45:28;101352.95;;;15.09;74.78
55044;BME280;54902;50.420;18.854;2023-10-13T02:45:59;101348.33;;;15.09;74.86
55044;BME280;54902;50.420;18.854;2023-10-13T02:46:30;101345.57;;;15.09;74.96
55044;BME280;54902;50.420;18.854;2023-10-13T02:47:05;101342.83;;;15.09;74.99
55044;BME280;54902;50.420;18.854;2023-10-13T02:47:44;101347.45;;;15.09;75.02
55044;BME280;54902;50.420;18.854;2023-10-13T02:48:20;101339.18;;;15.09;75.07
55044;BME280;54902;50.420;18.854;2023-10-13T02:48:52;101353.83;;;15.09;75.08
55044;BME280;54902;50.420;18.854;2023-10-13T02:49:32;101345.73;;;15.08;75.07
55044;BME280;54902;50.420;18.854;2023-10-13T02:50:08;101346.59;;;15.08;75.10
55044;BME280;54902;50.420;18.854;2023-10-13T02:50:43;101347.45;;;15.09;75.11
55044;BME280;54902;50.420;18.854;2023-10-13T02:51:17;101337.47;;;15.08;75.11
55044;BME280;54902;50.420;18.854;2023-10-13T02:51:48;101349.18;;;15.10;75.13
55044;BME280;54902;50.420;18.854;2023-10-13T02:52:23;101336.43;;;15.09;75.13
55044;BME280;54902;50.420;18.854;2023-10-13T02:52:55;101342.83;;;15.09;75.16
55044;BME280;54902;50.420;18.854;2023-10-13T02:53:26;101342.83;;;15.09;75.15
55044;BME280;54902;50.420;18.854;2023-10-13T02:53:58;101341.93;;;15.09;75.19
55044;BME280;54902;50.420;18.854;2023-10-13T02:54:33;101341.93;;;15.09;75.19
55044;BME280;54902;50.420;18.854;2023-10-13T02:55:15;101343.83;;;15.08;75.24
55044;BME280;54902;50.420;18.854;2023-10-13T02:55:56;101351.23;;;15.08;75.24
55044;BME280;54902;50.420;18.854;2023-10-13T02:56:39;101339.33;;;15.07;75.25
55044;BME280;54902;50.420;18.854;2023-10-13T02:57:22;101339.33;;;15.07;75.27
55044;BME280;54902;50.420;18.854;2023-10-13T02:57:54;101341.08;;;15.08;75.32
55044;BME280;54902;50.420;18.854;2023-10-13T02:58:29;101351.23;;;15.08;75.34
55044;BME280;54902;50.420;18.854;2023-10-13T02:59:08;101351.23;;;15.08;75.36
55044;BME280;54902;50.420;18.854;2023-10-13T02:59:43;101351.23;;;15.08;75.36
55044;BME280;54902;50.420;18.854;2023-10-13T03:00:18;101356.73;;;15.08;75.35